createdAt,value
2019-01-13T00:00:25.483Z,56.44
2019-01-13T00:00:56.685Z,56.28
2019-01-13T00:01:27.882Z,56.71
2019-01-13T00:01:59.103Z,56.44
2019-01-13T00:02:30.346Z,57.38
2019-01-13T00:03:01.512Z,56.63
2019-01-13T00:03:34.964Z,55.88
2019-01-13T00:04:06.180Z,56.09
2019-01-13T00:04:37.387Z,57.35
2019-01-13T00:05:08.888Z,56.19
2019-01-13T00:05:40.123Z,55.98
2019-01-13T00:06:11.320Z,55.88
2019-01-13T00:06:42.570Z,55.94
2019-01-13T00:07:13.759Z,56.03
2019-01-13T00:07:45.016Z,56.17
2019-01-13T00:08:16.299Z,56.81
2019-01-13T00:08:47.475Z,56.88
2019-01-13T00:09:18.676Z,57.62
2019-01-13T00:09:49.857Z,57.63
2019-01-13T00:10:21.080Z,57.14
2019-01-13T00:10:52.252Z,56.94
2019-01-13T00:11:25.708Z,56.88
2019-01-13T00:11:56.923Z,57.31
2019-01-13T00:12:28.132Z,57.24
2019-01-13T00:12:59.370Z,57.15
2019-01-13T00:13:30.626Z,57.38
2019-01-13T00:14:01.817Z,57.81
2019-01-13T00:14:33.077Z,57.37
2019-01-13T00:15:04.393Z,57.58
2019-01-13T00:15:35.626Z,57.65
2019-01-13T00:16:06.838Z,57.72
2019-01-13T00:16:38.079Z,58.59
2019-01-13T00:17:09.313Z,58.43
2019-01-13T00:17:40.574Z,58.28
2019-01-13T00:18:11.777Z,58.15
2019-01-13T00:18:42.982Z,58.10
2019-01-13T00:19:14.192Z,58.31
2019-01-13T00:19:45.445Z,58.76
2019-01-13T00:20:16.652Z,58.84
2019-01-13T00:20:47.843Z,58.60
2019-01-13T00:21:19.061Z,58.48
2019-01-13T00:21:50.263Z,58.45
2019-01-13T00:22:21.644Z,58.50
2019-01-13T00:22:52.841Z,58.69
2019-01-13T00:23:24.050Z,58.79
2019-01-13T00:23:55.248Z,58.93
2019-01-13T00:24:26.500Z,59.26
2019-01-13T00:24:57.690Z,59.26
2019-01-13T00:25:28.961Z,59.58
2019-01-13T00:26:00.195Z,59.45
2019-01-13T00:26:31.397Z,59.52
2019-01-13T00:27:02.596Z,59.52
2019-01-13T00:27:33.822Z,59.55
2019-01-13T00:28:05.017Z,59.50
2019-01-13T00:28:36.189Z,59.54
2019-01-13T00:29:08.132Z,59.63
2019-01-13T00:29:39.308Z,59.60
2019-01-13T00:30:10.539Z,59.64
2019-01-13T00:30:41.776Z,59.65
2019-01-13T00:31:13.064Z,59.84
2019-01-13T00:31:44.258Z,59.82
2019-01-13T00:32:15.451Z,59.80
2019-01-13T00:32:46.654Z,59.91
2019-01-13T00:33:17.845Z,59.89
2019-01-13T00:33:49.084Z,59.99
2019-01-13T00:34:20.331Z,60.15
2019-01-13T00:34:51.584Z,60.15
2019-01-13T00:35:22.816Z,60.04
2019-01-13T00:35:54.032Z,60.03
2019-01-13T00:36:25.242Z,59.93
2019-01-13T00:36:56.457Z,59.96
2019-01-13T00:37:27.645Z,59.95
2019-01-13T00:37:58.853Z,59.95
2019-01-13T00:38:30.094Z,60.29
2019-01-13T00:39:01.353Z,60.31
2019-01-13T00:39:32.613Z,60.43
2019-01-13T00:40:03.825Z,60.22
2019-01-13T00:40:37.536Z,59.82
2019-01-13T00:41:08.811Z,59.86
2019-01-13T00:41:40.053Z,60.07
2019-01-13T00:42:11.251Z,60.21
2019-01-13T00:42:42.478Z,60.21
2019-01-13T00:43:13.708Z,60.41
2019-01-13T00:43:44.907Z,60.39
2019-01-13T00:44:16.136Z,60.49
2019-01-13T00:44:47.321Z,60.53
2019-01-13T00:45:18.501Z,60.59
2019-01-13T00:45:49.737Z,60.53
2019-01-13T00:46:20.947Z,60.45
2019-01-13T00:46:52.221Z,60.45
2019-01-13T00:47:23.472Z,60.66
2019-01-13T00:47:54.736Z,60.74
2019-01-13T00:48:25.948Z,60.78
2019-01-13T00:48:57.155Z,60.80
2019-01-13T00:49:28.332Z,60.81
2019-01-13T00:49:59.541Z,60.83
2019-01-13T00:50:30.733Z,60.91
2019-01-13T00:51:01.932Z,60.85
2019-01-13T00:51:33.184Z,60.89
2019-01-13T00:52:04.361Z,60.90
2019-01-13T00:52:35.569Z,60.93
2019-01-13T00:53:06.810Z,60.95
2019-01-13T00:53:38.014Z,61.02
2019-01-13T00:54:09.223Z,61.12
2019-01-13T00:54:40.416Z,61.10
2019-01-13T00:55:11.653Z,61.10
2019-01-13T00:55:44.884Z,61.07
2019-01-13T00:56:16.075Z,61.10
2019-01-13T00:56:47.284Z,61.41
2019-01-13T00:57:18.489Z,61.18
2019-01-13T00:57:49.683Z,61.00
2019-01-13T00:58:21.644Z,60.88
2019-01-13T00:58:52.842Z,61.13
2019-01-13T00:59:24.068Z,60.89
2019-01-13T00:59:55.264Z,60.90
2019-01-13T01:00:27.011Z,60.91
2019-01-13T01:01:02.071Z,60.93
2019-01-13T01:01:33.280Z,61.00
2019-01-13T01:02:04.472Z,61.25
2019-01-13T01:02:35.719Z,61.25
2019-01-13T01:03:09.489Z,61.17
2019-01-13T01:03:40.687Z,61.20
2019-01-13T01:04:11.874Z,61.12
2019-01-13T01:04:43.083Z,61.08
2019-01-13T01:05:14.319Z,61.12
2019-01-13T01:05:45.571Z,61.07
2019-01-13T01:06:16.819Z,61.07
2019-01-13T01:06:48.057Z,61.07
2019-01-13T01:07:19.298Z,61.04
2019-01-13T01:07:50.547Z,61.06
2019-01-13T01:08:21.764Z,60.99
2019-01-13T01:08:52.955Z,60.86
2019-01-13T01:09:24.206Z,60.74
2019-01-13T01:09:57.707Z,60.64
2019-01-13T01:10:28.909Z,60.76
2019-01-13T01:11:00.198Z,60.54
2019-01-13T01:11:31.449Z,60.54
2019-01-13T01:12:02.639Z,60.58
2019-01-13T01:12:33.946Z,60.61
2019-01-13T01:13:05.190Z,60.58
2019-01-13T01:13:36.422Z,60.91
2019-01-13T01:14:09.887Z,60.91
2019-01-13T01:14:41.147Z,60.81
2019-01-13T01:15:12.302Z,61.08
2019-01-13T01:15:43.519Z,60.91
2019-01-13T01:16:14.767Z,60.69
2019-01-13T01:16:46.003Z,60.58
2019-01-13T01:17:17.236Z,60.61
2019-01-13T01:17:48.436Z,60.67
2019-01-13T01:18:19.608Z,60.83
2019-01-13T01:18:50.842Z,60.56
2019-01-13T01:19:22.079Z,60.56
2019-01-13T01:19:53.265Z,60.75
2019-01-13T01:20:24.497Z,60.96
2019-01-13T01:20:55.708Z,61.19
2019-01-13T01:21:26.941Z,61.26
2019-01-13T01:21:58.145Z,61.29
2019-01-13T01:22:29.424Z,60.90
2019-01-13T01:23:00.639Z,60.66
2019-01-13T01:23:31.850Z,60.51
2019-01-13T01:24:03.037Z,60.47
2019-01-13T01:24:34.315Z,60.50
2019-01-13T01:25:05.518Z,61.00
2019-01-13T01:25:36.709Z,61.00
2019-01-13T01:26:07.998Z,60.82
2019-01-13T01:26:39.222Z,60.81
2019-01-13T01:27:10.441Z,60.56
2019-01-13T01:27:41.632Z,60.85
2019-01-13T01:28:12.899Z,60.85
2019-01-13T01:28:44.470Z,60.99
2019-01-13T01:29:15.788Z,61.15
2019-01-13T01:29:47.043Z,61.13
2019-01-13T01:30:18.333Z,61.13
2019-01-13T01:30:49.525Z,61.14
2019-01-13T01:31:20.722Z,61.18
2019-01-13T01:31:51.921Z,61.09
2019-01-13T01:32:23.107Z,61.27
2019-01-13T01:32:54.329Z,61.34
2019-01-13T01:33:26.089Z,61.57
2019-01-13T01:33:57.479Z,61.57
2019-01-13T01:34:28.717Z,61.71
2019-01-13T01:34:59.936Z,61.64
2019-01-13T01:35:31.186Z,61.64
2019-01-13T01:36:02.376Z,61.75
2019-01-13T01:36:33.630Z,61.57
2019-01-13T01:37:04.896Z,61.60
2019-01-13T01:37:36.112Z,61.64
2019-01-13T01:38:07.339Z,61.42
2019-01-13T01:38:38.542Z,61.42
2019-01-13T01:39:09.749Z,61.70
2019-01-13T01:39:40.950Z,61.75
2019-01-13T01:40:12.129Z,61.77
2019-01-13T01:40:46.433Z,61.76
2019-01-13T01:41:17.677Z,61.71
2019-01-13T01:41:48.883Z,61.50
2019-01-13T01:42:20.127Z,61.50
2019-01-13T01:42:51.336Z,62.08
2019-01-13T01:43:22.538Z,62.26
2019-01-13T01:43:53.771Z,62.13
2019-01-13T01:44:25.019Z,61.92
2019-01-13T01:44:56.198Z,62.00
2019-01-13T01:45:27.422Z,62.14
2019-01-13T01:45:58.663Z,62.46
2019-01-13T01:46:29.868Z,63.07
2019-01-13T01:47:01.106Z,62.99
2019-01-13T01:47:32.360Z,63.20
2019-01-13T01:48:03.594Z,61.93
2019-01-13T01:48:34.818Z,61.93
2019-01-13T01:49:06.078Z,61.32
2019-01-13T01:49:37.344Z,61.68
2019-01-13T01:50:08.553Z,61.68
2019-01-13T01:50:39.769Z,61.68
2019-01-13T01:51:10.976Z,61.77
2019-01-13T01:51:42.212Z,62.02
2019-01-13T01:52:13.480Z,61.90
2019-01-13T01:52:44.697Z,61.86
2019-01-13T01:53:18.177Z,62.02
2019-01-13T01:53:49.403Z,62.02
2019-01-13T01:54:20.605Z,62.05
2019-01-13T01:54:51.835Z,62.55
2019-01-13T01:55:23.030Z,62.51
2019-01-13T01:55:54.269Z,62.40
2019-01-13T01:56:25.535Z,62.46
2019-01-13T01:56:56.810Z,62.43
2019-01-13T01:57:28.039Z,62.47
2019-01-13T01:57:59.247Z,62.47
2019-01-13T01:58:30.441Z,62.28
2019-01-13T01:59:01.629Z,62.44
2019-01-13T01:59:32.896Z,62.43
2019-01-13T02:00:04.139Z,62.81
2019-01-13T02:00:40.585Z,62.91
2019-01-13T02:01:08.400Z,62.91
2019-01-13T02:01:41.864Z,63.67
2019-01-13T02:02:13.123Z,63.65
2019-01-13T02:02:44.314Z,63.06
2019-01-13T02:03:15.557Z,62.31
2019-01-13T02:03:46.774Z,62.31
2019-01-13T02:04:18.042Z,62.19
2019-01-13T02:04:49.312Z,62.94
2019-01-13T02:05:20.671Z,62.96
2019-01-13T02:05:51.933Z,62.32
2019-01-13T02:06:23.183Z,61.91
2019-01-13T02:06:54.443Z,61.81
2019-01-13T02:07:25.643Z,62.45
2019-01-13T02:07:59.045Z,62.45
2019-01-13T02:08:30.221Z,62.32
2019-01-13T02:09:01.463Z,63.10
2019-01-13T02:09:32.641Z,62.54
2019-01-13T02:10:03.910Z,62.05
2019-01-13T02:10:35.132Z,62.05
2019-01-13T02:11:06.375Z,61.85
2019-01-13T02:11:37.547Z,61.70
2019-01-13T02:12:08.854Z,61.75
2019-01-13T02:12:40.068Z,61.75
2019-01-13T02:13:11.302Z,62.65
2019-01-13T02:13:42.524Z,62.70
2019-01-13T02:14:13.733Z,62.06
2019-01-13T02:14:44.954Z,61.80
2019-01-13T02:15:16.264Z,61.82
2019-01-13T02:15:47.476Z,62.61
2019-01-13T02:16:18.686Z,62.71
2019-01-13T02:16:50.806Z,62.38
2019-01-13T02:17:22.025Z,62.65
2019-01-13T02:17:53.259Z,61.92
2019-01-13T02:18:24.475Z,61.82
2019-01-13T02:18:55.741Z,62.96
2019-01-13T02:19:27.019Z,62.25
2019-01-13T02:19:58.237Z,62.15
2019-01-13T02:20:29.473Z,62.15
2019-01-13T02:21:00.659Z,62.37
2019-01-13T02:21:31.837Z,61.87
2019-01-13T02:22:03.071Z,61.97
2019-01-13T02:22:34.299Z,61.89
2019-01-13T02:23:05.556Z,62.40
2019-01-13T02:23:37.934Z,62.27
2019-01-13T02:24:09.159Z,63.37
2019-01-13T02:24:40.387Z,61.83
2019-01-13T02:25:11.569Z,60.82
2019-01-13T02:25:43.655Z,60.81
2019-01-13T02:26:14.847Z,61.71
2019-01-13T02:26:46.125Z,62.05
2019-01-13T02:27:17.395Z,61.84
2019-01-13T02:27:48.609Z,60.71
2019-01-13T02:28:19.905Z,59.87
2019-01-13T02:28:51.189Z,59.87
2019-01-13T02:29:22.392Z,60.64
2019-01-13T02:29:53.646Z,60.02
2019-01-13T02:30:24.898Z,60.00
2019-01-13T02:30:56.110Z,60.42
2019-01-13T02:31:28.149Z,61.49
2019-01-13T02:31:59.350Z,61.49
2019-01-13T02:32:30.543Z,60.55
2019-01-13T02:33:01.752Z,60.55
2019-01-13T02:33:33.008Z,60.92
2019-01-13T02:34:04.209Z,61.59
2019-01-13T02:34:35.392Z,61.38
2019-01-13T02:35:06.617Z,62.05
2019-01-13T02:35:37.882Z,62.18
2019-01-13T02:36:09.101Z,60.93
2019-01-13T02:36:40.311Z,61.36
2019-01-13T02:37:11.565Z,60.56
2019-01-13T02:37:42.750Z,60.81
2019-01-13T02:38:13.979Z,61.65
2019-01-13T02:38:45.236Z,60.96
2019-01-13T02:39:16.532Z,60.57
2019-01-13T02:39:47.803Z,60.89
2019-01-13T02:40:19.096Z,61.13
2019-01-13T02:40:50.345Z,61.13
2019-01-13T02:41:21.595Z,62.72
2019-01-13T02:41:52.825Z,61.47
2019-01-13T02:42:24.078Z,61.42
2019-01-13T02:42:55.295Z,61.24
2019-01-13T02:43:26.506Z,60.98
2019-01-13T02:43:57.726Z,60.44
2019-01-13T02:44:28.993Z,60.44
2019-01-13T02:45:00.266Z,60.59
2019-01-13T02:45:31.491Z,61.27
2019-01-13T02:46:02.795Z,60.98
2019-01-13T02:46:34.060Z,62.38
2019-01-13T02:47:05.356Z,61.74
2019-01-13T02:47:36.569Z,60.86
2019-01-13T02:48:07.780Z,60.42
2019-01-13T02:48:39.073Z,60.85
2019-01-13T02:49:10.303Z,61.25
2019-01-13T02:49:41.583Z,61.15
2019-01-13T02:50:12.853Z,61.47
2019-01-13T02:50:44.107Z,61.47
2019-01-13T02:51:15.306Z,61.74
2019-01-13T02:51:46.575Z,61.42
2019-01-13T02:52:17.798Z,61.42
2019-01-13T02:52:49.054Z,62.37
2019-01-13T02:53:20.347Z,61.98
2019-01-13T02:53:51.595Z,62.49
2019-01-13T02:54:22.914Z,62.40
2019-01-13T02:54:54.898Z,62.94
2019-01-13T02:55:26.134Z,63.42
2019-01-13T02:55:57.378Z,63.11
2019-01-13T02:56:28.693Z,62.18
2019-01-13T02:56:59.891Z,62.18
2019-01-13T02:57:31.139Z,61.95
2019-01-13T02:58:02.364Z,61.92
2019-01-13T02:58:33.595Z,62.04
2019-01-13T02:59:04.816Z,62.96
2019-01-13T02:59:36.079Z,62.96
2019-01-13T03:00:07.344Z,62.84
2019-01-13T03:00:38.568Z,62.94
2019-01-13T03:01:09.770Z,62.86
2019-01-13T03:01:41.061Z,62.84
2019-01-13T03:02:13.093Z,63.03
2019-01-13T03:02:44.390Z,63.12
2019-01-13T03:03:15.580Z,63.30
2019-01-13T03:03:47.859Z,63.77
2019-01-13T03:04:19.131Z,63.58
2019-01-13T03:04:50.396Z,63.47
2019-01-13T03:05:21.683Z,63.54
2019-01-13T03:05:52.937Z,64.24
2019-01-13T03:06:24.179Z,64.44
2019-01-13T03:06:55.446Z,64.65
2019-01-13T03:07:26.662Z,64.05
2019-01-13T03:07:57.994Z,63.95
2019-01-13T03:08:29.318Z,64.73
2019-01-13T03:09:00.604Z,64.28
2019-01-13T03:09:31.816Z,64.41
2019-01-13T03:10:03.083Z,64.14
2019-01-13T03:10:34.290Z,63.58
2019-01-13T03:11:05.652Z,63.12
2019-01-13T03:11:36.847Z,62.94
2019-01-13T03:12:08.103Z,63.83
2019-01-13T03:12:39.307Z,64.49
2019-01-13T03:13:10.570Z,64.00
2019-01-13T03:13:41.818Z,63.18
2019-01-13T03:14:13.066Z,63.25
2019-01-13T03:14:44.256Z,62.97
2019-01-13T03:15:19.317Z,62.96
2019-01-13T03:15:48.420Z,64.08
2019-01-13T03:16:19.666Z,63.70
2019-01-13T03:16:50.945Z,63.12
2019-01-13T03:17:22.182Z,63.10
2019-01-13T03:17:53.492Z,63.50
2019-01-13T03:18:24.755Z,63.53
2019-01-13T03:18:56.022Z,63.38
2019-01-13T03:19:27.260Z,63.53
2019-01-13T03:19:58.480Z,63.70
2019-01-13T03:20:29.790Z,63.53
2019-01-13T03:21:01.757Z,63.94
2019-01-13T03:21:33.027Z,63.98
2019-01-13T03:22:04.287Z,63.87
2019-01-13T03:22:35.507Z,63.50
2019-01-13T03:23:06.659Z,63.18
2019-01-13T03:23:37.896Z,63.27
2019-01-13T03:24:09.123Z,63.72
2019-01-13T03:24:40.331Z,63.61
2019-01-13T03:25:12.120Z,64.21
2019-01-13T03:25:43.666Z,64.23
2019-01-13T03:26:15.013Z,64.59
2019-01-13T03:26:46.299Z,64.79
2019-01-13T03:27:17.581Z,64.79
2019-01-13T03:27:48.818Z,65.21
2019-01-13T03:28:20.057Z,64.84
2019-01-13T03:28:51.362Z,65.10
2019-01-13T03:29:22.560Z,64.14
2019-01-13T03:29:53.799Z,63.20
2019-01-13T03:30:25.074Z,63.33
2019-01-13T03:30:56.395Z,63.15
2019-01-13T03:31:27.604Z,63.44
2019-01-13T03:31:58.807Z,63.95
2019-01-13T03:32:30.066Z,63.95
2019-01-13T03:33:01.327Z,63.46
2019-01-13T03:33:32.571Z,63.25
2019-01-13T03:34:03.788Z,63.46
2019-01-13T03:34:35.005Z,63.68
2019-01-13T03:35:06.218Z,64.15
2019-01-13T03:35:37.495Z,64.06
2019-01-13T03:36:08.709Z,64.17
2019-01-13T03:36:39.992Z,64.48
2019-01-13T03:37:11.239Z,64.98
2019-01-13T03:37:42.545Z,64.71
2019-01-13T03:38:13.758Z,65.24
2019-01-13T03:38:44.994Z,65.27
2019-01-13T03:39:18.494Z,65.26
2019-01-13T03:39:49.720Z,65.27
2019-01-13T03:40:20.989Z,65.20
2019-01-13T03:40:52.193Z,65.98
2019-01-13T03:41:23.576Z,65.93
2019-01-13T03:41:54.783Z,65.53
2019-01-13T03:42:26.048Z,66.29
2019-01-13T03:42:57.348Z,65.81
2019-01-13T03:43:28.575Z,66.13
2019-01-13T03:43:59.839Z,66.22
2019-01-13T03:44:31.159Z,65.83
2019-01-13T03:45:02.379Z,65.95
2019-01-13T03:45:33.605Z,65.90
2019-01-13T03:46:04.889Z,65.76
2019-01-13T03:46:36.136Z,65.69
2019-01-13T03:47:07.402Z,65.78
2019-01-13T03:47:38.689Z,66.14
2019-01-13T03:48:09.963Z,66.48
2019-01-13T03:48:41.227Z,66.37
2019-01-13T03:49:12.492Z,66.21
2019-01-13T03:49:43.745Z,66.15
2019-01-13T03:50:15.056Z,66.29
2019-01-13T03:50:46.299Z,66.41
2019-01-13T03:51:17.642Z,66.59
2019-01-13T03:51:48.947Z,66.75
2019-01-13T03:52:20.207Z,66.71
2019-01-13T03:52:53.303Z,66.62
2019-01-13T03:53:24.508Z,66.65
2019-01-13T03:53:55.876Z,66.67
2019-01-13T03:54:27.128Z,66.76
2019-01-13T03:54:58.349Z,66.76
2019-01-13T03:55:29.603Z,66.79
2019-01-13T03:56:00.838Z,66.77
2019-01-13T03:56:32.099Z,66.80
2019-01-13T03:57:03.318Z,66.76
2019-01-13T03:57:34.569Z,66.80
2019-01-13T03:58:05.816Z,66.93
2019-01-13T03:58:37.064Z,66.93
2019-01-13T03:59:08.288Z,67.00
2019-01-13T03:59:39.547Z,66.91
2019-01-13T04:00:10.771Z,66.79
2019-01-13T04:00:42.049Z,66.78
2019-01-13T04:01:18.518Z,66.79
2019-01-13T04:01:46.314Z,66.88
2019-01-13T04:02:17.537Z,66.99
2019-01-13T04:02:48.774Z,67.20
2019-01-13T04:03:22.260Z,67.15
2019-01-13T04:03:53.480Z,67.09
2019-01-13T04:04:24.689Z,66.99
2019-01-13T04:04:55.964Z,67.03
2019-01-13T04:05:27.174Z,67.06
2019-01-13T04:05:58.444Z,67.09
2019-01-13T04:06:29.670Z,67.11
2019-01-13T04:07:00.949Z,67.14
2019-01-13T04:07:32.213Z,67.10
2019-01-13T04:08:03.430Z,67.17
2019-01-13T04:08:34.686Z,67.24
2019-01-13T04:09:05.880Z,67.85
2019-01-13T04:09:37.109Z,68.13
2019-01-13T04:10:08.330Z,67.58
2019-01-13T04:10:39.486Z,67.41
2019-01-13T04:11:10.724Z,67.21
2019-01-13T04:11:41.971Z,67.14
2019-01-13T04:12:13.240Z,66.91
2019-01-13T04:12:44.467Z,66.82
2019-01-13T04:13:15.857Z,66.63
2019-01-13T04:13:47.062Z,66.38
2019-01-13T04:14:18.319Z,66.13
2019-01-13T04:14:49.607Z,66.06
2019-01-13T04:15:20.838Z,65.99
2019-01-13T04:15:52.063Z,65.73
2019-01-13T04:16:23.324Z,65.55
2019-01-13T04:16:54.542Z,65.47
2019-01-13T04:17:25.852Z,65.48
2019-01-13T04:17:57.107Z,65.44
2019-01-13T04:18:28.324Z,65.56
2019-01-13T04:18:59.592Z,65.65
2019-01-13T04:19:30.868Z,65.83
2019-01-13T04:20:03.163Z,65.90
2019-01-13T04:20:34.480Z,65.97
2019-01-13T04:21:05.793Z,66.03
2019-01-13T04:21:37.052Z,65.86
2019-01-13T04:22:08.306Z,65.82
2019-01-13T04:22:39.608Z,65.87
2019-01-13T04:23:10.873Z,66.01
2019-01-13T04:23:42.199Z,66.36
2019-01-13T04:24:13.451Z,66.52
2019-01-13T04:24:44.743Z,66.53
2019-01-13T04:25:15.914Z,66.45
2019-01-13T04:25:47.187Z,66.54
2019-01-13T04:26:18.445Z,66.66
2019-01-13T04:26:49.682Z,66.69
2019-01-13T04:27:20.925Z,66.76
2019-01-13T04:27:52.219Z,66.73
2019-01-13T04:28:23.427Z,66.65
2019-01-13T04:28:54.684Z,66.62
2019-01-13T04:29:25.894Z,66.52
2019-01-13T04:29:57.110Z,66.34
2019-01-13T04:30:28.366Z,66.34
2019-01-13T04:30:59.588Z,66.26
2019-01-13T04:31:30.900Z,66.14
2019-01-13T04:32:02.185Z,66.11
2019-01-13T04:32:33.400Z,66.08
2019-01-13T04:33:04.687Z,65.98
2019-01-13T04:33:35.974Z,65.99
2019-01-13T04:34:07.186Z,66.00
2019-01-13T04:34:38.468Z,66.03
2019-01-13T04:35:09.689Z,66.00
2019-01-13T04:35:40.966Z,65.91
2019-01-13T04:36:12.290Z,65.80
2019-01-13T04:36:43.567Z,65.80
2019-01-13T04:37:14.822Z,65.66
2019-01-13T04:37:46.014Z,65.59
2019-01-13T04:38:17.242Z,65.56
2019-01-13T04:38:48.486Z,65.51
2019-01-13T04:39:19.687Z,65.65
2019-01-13T04:39:50.899Z,65.54
2019-01-13T04:40:22.122Z,65.46
2019-01-13T04:40:53.319Z,65.24
2019-01-13T04:41:25.055Z,65.11
2019-01-13T04:41:56.335Z,65.18
2019-01-13T04:42:27.563Z,64.68
2019-01-13T04:43:01.040Z,64.45
2019-01-13T04:43:32.254Z,64.21
2019-01-13T04:44:03.509Z,64.07
2019-01-13T04:44:34.799Z,64.00
2019-01-13T04:45:06.036Z,64.06
2019-01-13T04:45:37.242Z,64.03
2019-01-13T04:46:08.503Z,63.75
2019-01-13T04:46:39.755Z,63.79
2019-01-13T04:47:10.976Z,63.55
2019-01-13T04:47:42.212Z,63.29
2019-01-13T04:48:13.522Z,63.38
2019-01-13T04:48:44.676Z,63.13
2019-01-13T04:49:15.925Z,63.18
2019-01-13T04:49:47.142Z,63.01
2019-01-13T04:50:18.387Z,62.92
2019-01-13T04:50:49.584Z,62.99
2019-01-13T04:51:20.797Z,62.94
2019-01-13T04:51:52.020Z,62.91
2019-01-13T04:52:23.216Z,62.91
2019-01-13T04:52:54.452Z,62.87
2019-01-13T04:53:25.719Z,62.78
2019-01-13T04:53:56.963Z,62.74
2019-01-13T04:54:28.177Z,62.67
2019-01-13T04:54:59.385Z,62.48
2019-01-13T04:55:30.607Z,62.55
2019-01-13T04:56:01.829Z,62.44
2019-01-13T04:56:33.076Z,62.39
2019-01-13T04:57:04.283Z,62.34
2019-01-13T04:57:35.490Z,62.26
2019-01-13T04:58:06.758Z,62.27
2019-01-13T04:58:37.972Z,62.31
2019-01-13T04:59:09.235Z,62.31
2019-01-13T04:59:40.516Z,61.98
2019-01-13T05:00:11.698Z,61.98
2019-01-13T05:00:42.943Z,62.06
2019-01-13T05:01:14.160Z,62.06
2019-01-13T05:01:45.355Z,61.96
2019-01-13T05:02:16.581Z,61.83
2019-01-13T05:02:47.796Z,61.79
2019-01-13T05:03:19.066Z,62.01
2019-01-13T05:03:50.319Z,61.80
2019-01-13T05:04:21.547Z,61.72
2019-01-13T05:04:52.740Z,61.72
2019-01-13T05:05:23.994Z,61.50
2019-01-13T05:05:55.187Z,61.46
2019-01-13T05:06:26.444Z,61.36
2019-01-13T05:06:57.712Z,61.50
2019-01-13T05:07:28.966Z,61.50
2019-01-13T05:08:00.190Z,61.52
2019-01-13T05:08:31.445Z,61.52
2019-01-13T05:09:02.653Z,61.63
2019-01-13T05:09:33.890Z,61.64
2019-01-13T05:10:05.158Z,61.88
2019-01-13T05:10:36.432Z,61.88
2019-01-13T05:11:07.646Z,61.66
2019-01-13T05:11:38.841Z,61.61
2019-01-13T05:12:10.080Z,61.65
2019-01-13T05:12:41.358Z,61.64
2019-01-13T05:13:12.565Z,61.53
2019-01-13T05:13:43.846Z,61.56
2019-01-13T05:14:15.015Z,61.71
2019-01-13T05:14:46.241Z,61.48
2019-01-13T05:15:17.500Z,61.63
2019-01-13T05:15:48.739Z,61.42
2019-01-13T05:16:19.981Z,61.67
2019-01-13T05:16:51.274Z,61.66
2019-01-13T05:17:22.661Z,61.77
2019-01-13T05:17:53.872Z,61.77
2019-01-13T05:18:25.107Z,61.67
2019-01-13T05:18:56.324Z,61.56
2019-01-13T05:19:27.578Z,61.54
2019-01-13T05:19:58.751Z,61.61
2019-01-13T05:20:29.932Z,61.50
2019-01-13T05:21:01.226Z,61.33
2019-01-13T05:21:32.399Z,61.33
2019-01-13T05:22:03.638Z,61.26
2019-01-13T05:22:34.917Z,61.25
2019-01-13T05:23:06.127Z,61.17
2019-01-13T05:23:37.332Z,61.14
2019-01-13T05:24:08.536Z,61.15
2019-01-13T05:24:39.692Z,61.15
2019-01-13T05:25:10.919Z,61.14
2019-01-13T05:25:42.118Z,61.12
2019-01-13T05:26:13.301Z,61.08
2019-01-13T05:26:44.490Z,61.08
2019-01-13T05:27:15.727Z,61.13
2019-01-13T05:27:46.974Z,61.08
2019-01-13T05:28:18.185Z,61.04
2019-01-13T05:28:49.413Z,61.01
2019-01-13T05:29:20.622Z,61.03
2019-01-13T05:29:51.804Z,60.94
2019-01-13T05:30:23.012Z,60.90
2019-01-13T05:30:54.317Z,60.91
2019-01-13T05:31:25.523Z,60.97
2019-01-13T05:31:56.772Z,60.76
2019-01-13T05:32:27.975Z,60.78
2019-01-13T05:32:59.170Z,60.92
2019-01-13T05:33:30.381Z,60.73
2019-01-13T05:34:01.641Z,60.76
2019-01-13T05:34:32.900Z,60.64
2019-01-13T05:35:04.077Z,60.67
2019-01-13T05:35:35.282Z,60.50
2019-01-13T05:36:06.507Z,60.58
2019-01-13T05:36:37.752Z,60.58
2019-01-13T05:37:08.991Z,60.63
2019-01-13T05:37:40.202Z,60.81
2019-01-13T05:38:11.423Z,61.03
2019-01-13T05:38:42.653Z,61.19
2019-01-13T05:39:13.882Z,61.20
2019-01-13T05:39:45.134Z,61.18
2019-01-13T05:40:16.401Z,60.84
2019-01-13T05:40:48.728Z,60.84
2019-01-13T05:41:20.030Z,60.85
2019-01-13T05:41:51.198Z,60.96
2019-01-13T05:42:22.427Z,60.97
2019-01-13T05:42:53.649Z,61.04
2019-01-13T05:43:24.838Z,61.04
2019-01-13T05:43:56.021Z,60.97
2019-01-13T05:44:27.202Z,61.01
2019-01-13T05:44:59.856Z,61.13
2019-01-13T05:45:31.108Z,61.09
2019-01-13T05:46:02.349Z,61.13
2019-01-13T05:46:33.532Z,61.08
2019-01-13T05:47:04.826Z,61.12
2019-01-13T05:47:36.031Z,61.25
2019-01-13T05:48:07.244Z,61.36
2019-01-13T05:48:38.435Z,61.38
2019-01-13T05:49:09.671Z,61.35
2019-01-13T05:49:40.874Z,61.38
2019-01-13T05:50:12.050Z,61.55
2019-01-13T05:50:43.221Z,61.49
2019-01-13T05:51:14.402Z,61.55
2019-01-13T05:51:45.641Z,61.65
2019-01-13T05:52:16.898Z,61.68
2019-01-13T05:52:48.104Z,61.60
2019-01-13T05:53:19.282Z,61.60
2019-01-13T05:53:50.480Z,61.71
2019-01-13T05:54:21.681Z,61.68
2019-01-13T05:54:52.898Z,61.43
2019-01-13T05:55:24.031Z,61.79
2019-01-13T05:55:55.243Z,61.83
2019-01-13T05:56:26.451Z,61.87
2019-01-13T05:56:57.741Z,61.84
2019-01-13T05:57:28.991Z,61.85
2019-01-13T05:58:00.161Z,62.08
2019-01-13T05:58:31.428Z,62.08
2019-01-13T05:59:02.644Z,62.10
2019-01-13T05:59:33.848Z,61.86
2019-01-13T06:00:05.087Z,61.86
2019-01-13T06:00:36.336Z,61.83
2019-01-13T06:01:07.583Z,61.75
2019-01-13T06:01:38.861Z,61.67
2019-01-13T06:02:10.115Z,61.65
2019-01-13T06:02:41.356Z,61.60
2019-01-13T06:03:12.546Z,61.58
2019-01-13T06:03:43.779Z,61.64
2019-01-13T06:04:14.956Z,61.64
2019-01-13T06:04:46.191Z,61.50
2019-01-13T06:05:17.376Z,61.42
2019-01-13T06:05:48.747Z,61.46
2019-01-13T06:06:19.959Z,61.44
2019-01-13T06:06:51.214Z,61.43
2019-01-13T06:07:24.004Z,61.51
2019-01-13T06:07:55.192Z,61.54
2019-01-13T06:08:26.386Z,61.56
2019-01-13T06:08:57.570Z,61.56
2019-01-13T06:09:28.747Z,61.53
2019-01-13T06:09:59.945Z,61.53
2019-01-13T06:10:31.181Z,61.47
2019-01-13T06:11:02.350Z,61.44
2019-01-13T06:11:33.526Z,61.48
2019-01-13T06:12:04.737Z,61.52
2019-01-13T06:12:36.055Z,61.47
2019-01-13T06:13:08.170Z,61.44
2019-01-13T06:13:39.402Z,61.37
2019-01-13T06:14:10.582Z,61.37
2019-01-13T06:14:41.797Z,61.29
2019-01-13T06:15:12.966Z,61.27
2019-01-13T06:15:45.747Z,61.19
2019-01-13T06:16:17.033Z,61.12
2019-01-13T06:16:48.215Z,61.04
2019-01-13T06:17:19.387Z,61.02
2019-01-13T06:17:50.603Z,60.93
2019-01-13T06:18:21.868Z,60.93
2019-01-13T06:18:53.047Z,60.93
2019-01-13T06:19:24.209Z,61.00
2019-01-13T06:19:55.377Z,61.00
2019-01-13T06:20:26.556Z,60.92
2019-01-13T06:20:57.781Z,61.01
2019-01-13T06:21:28.977Z,60.94
2019-01-13T06:22:00.174Z,60.87
2019-01-13T06:22:31.402Z,60.88
2019-01-13T06:23:02.622Z,60.89
2019-01-13T06:23:33.809Z,60.85
2019-01-13T06:24:04.994Z,60.83
2019-01-13T06:24:36.189Z,60.78
2019-01-13T06:25:08.280Z,60.71
2019-01-13T06:25:39.461Z,60.71
2019-01-13T06:26:10.639Z,60.72
2019-01-13T06:26:41.819Z,60.76
2019-01-13T06:27:13.022Z,60.66
2019-01-13T06:27:44.188Z,60.69
2019-01-13T06:28:15.421Z,60.65
2019-01-13T06:28:46.607Z,60.44
2019-01-13T06:29:17.791Z,60.46
2019-01-13T06:29:48.942Z,60.31
2019-01-13T06:30:20.183Z,60.27
2019-01-13T06:30:51.359Z,60.23
2019-01-13T06:31:22.554Z,60.12
2019-01-13T06:31:56.402Z,60.13
2019-01-13T06:32:26.704Z,60.09
2019-01-13T06:32:57.894Z,60.08
2019-01-13T06:33:29.048Z,60.00
2019-01-13T06:34:00.541Z,59.98
2019-01-13T06:34:31.707Z,59.92
2019-01-13T06:35:02.893Z,59.79
2019-01-13T06:35:34.104Z,59.66
2019-01-13T06:36:05.311Z,59.67
2019-01-13T06:36:36.504Z,59.63
2019-01-13T06:37:07.732Z,59.55
2019-01-13T06:37:38.920Z,59.46
2019-01-13T06:38:10.091Z,59.43
2019-01-13T06:38:41.277Z,59.45
2019-01-13T06:39:12.446Z,59.33
2019-01-13T06:39:43.636Z,59.29
2019-01-13T06:40:14.807Z,59.19
2019-01-13T06:40:45.990Z,59.10
2019-01-13T06:41:17.169Z,59.17
2019-01-13T06:41:48.339Z,59.17
2019-01-13T06:42:19.568Z,59.08
2019-01-13T06:42:50.757Z,59.08
2019-01-13T06:43:21.964Z,59.00